createdAt,value
2022-10-19T00:01:17.356Z,28.56
2022-10-19T00:06:19.716Z,28.99
2022-10-19T00:08:48.196Z,28.83
2022-10-19T00:11:18.308Z,28.77
2022-10-19T00:13:46.781Z,28.77
2022-10-19T00:16:17.140Z,28.54
2022-10-19T00:18:45.696Z,28.65
2022-10-19T00:21:17.461Z,28.26
2022-10-19T00:23:46.907Z,28.46
2022-10-19T00:26:15.356Z,28.48
2022-10-19T00:28:45.536Z,28.21
2022-10-19T00:31:15.461Z,28.50
2022-10-19T00:33:44.480Z,28.57
2022-10-19T00:36:17.225Z,28.06
2022-10-19T00:38:46.033Z,28.77
2022-10-19T00:41:14.780Z,28.42
2022-10-19T00:43:56.225Z,27.37
2022-10-19T00:46:24.762Z,28.32
2022-10-19T00:48:55.796Z,28.44
2022-10-19T00:51:24.339Z,28.61
2022-10-19T00:53:55.542Z,29.19
2022-10-19T00:56:23.866Z,29.13
2022-10-19T00:58:52.212Z,29.51
2022-10-19T01:01:23.685Z,28.70
2022-10-19T01:03:52.282Z,29.19
2022-10-19T01:06:22.091Z,29.13
2022-10-19T01:08:50.440Z,29.51
2022-10-19T01:11:30.867Z,28.27
2022-10-19T01:14:09.241Z,28.61
2022-10-19T01:16:48.003Z,28.64
2022-10-19T01:19:34.406Z,28.71
2022-10-19T01:22:12.302Z,28.44
2022-10-19T01:27:31.266Z,28.89
2022-10-19T01:30:04.832Z,28.68
2022-10-19T01:32:40.027Z,28.36
2022-10-19T01:35:12.463Z,28.60
2022-10-19T01:37:45.918Z,28.85
2022-10-19T01:40:18.880Z,28.72
2022-10-19T01:42:50.434Z,29.18
2022-10-19T01:45:22.753Z,29.19
2022-10-19T01:47:55.591Z,29.04
2022-10-19T01:50:28.258Z,29.44
2022-10-19T01:52:57.155Z,30.14
2022-10-19T01:55:26.629Z,29.75
2022-10-19T01:57:58.570Z,29.73
2022-10-19T02:00:28.969Z,30.22
2022-10-19T02:02:57.673Z,30.58
2022-10-19T02:05:30.509Z,30.23
2022-10-19T02:08:00.778Z,30.66
2022-10-19T02:10:29.966Z,30.61
2022-10-19T02:12:59.773Z,30.61
2022-10-19T02:15:30.949Z,30.17
2022-10-19T02:18:00.430Z,30.46
2022-10-19T02:20:37.473Z,30.51
2022-10-19T02:23:06.466Z,30.18
2022-10-19T02:25:35.595Z,30.74
2022-10-19T02:28:05.067Z,29.99
2022-10-19T02:30:35.228Z,30.07
2022-10-19T02:33:03.345Z,30.69
2022-10-19T02:35:32.244Z,30.32
2022-10-19T02:38:02.322Z,30.06
2022-10-19T02:40:31.334Z,30.00
2022-10-19T02:43:02.977Z,30.20
2022-10-19T02:45:35.291Z,30.00
2022-10-19T02:48:05.575Z,30.34
2022-10-19T02:50:34.163Z,30.44
2022-10-19T02:53:02.624Z,30.67
2022-10-19T02:55:31.569Z,30.50
2022-10-19T02:57:59.917Z,30.13
2022-10-19T03:00:28.285Z,30.06
2022-10-19T03:02:58.000Z,30.08
2022-10-19T03:05:26.480Z,29.99
2022-10-19T03:07:54.960Z,29.88
2022-10-19T03:10:23.452Z,30.45
2022-10-19T03:12:51.665Z,29.85
2022-10-19T03:15:20.445Z,30.26
2022-10-19T03:17:48.635Z,30.04
2022-10-19T03:20:18.682Z,29.57
2022-10-19T03:22:46.940Z,29.66
2022-10-19T03:25:15.350Z,29.93
2022-10-19T03:27:43.607Z,29.94
2022-10-19T03:30:12.584Z,29.29
2022-10-19T03:32:40.811Z,29.83
2022-10-19T03:35:09.466Z,29.21
2022-10-19T03:37:39.071Z,28.97
2022-10-19T03:40:08.225Z,29.49
2022-10-19T03:42:36.398Z,28.92
2022-10-19T03:45:05.674Z,28.73
2022-10-19T03:47:34.032Z,28.96
2022-10-19T03:50:02.541Z,28.89
2022-10-19T03:52:30.753Z,28.63
2022-10-19T03:55:00.636Z,28.17
2022-10-19T03:57:28.903Z,28.68
2022-10-19T03:59:57.275Z,29.02
2022-10-19T04:02:25.657Z,28.90
2022-10-19T04:04:54.153Z,28.95
2022-10-19T04:07:22.393Z,28.99
2022-10-19T04:09:50.763Z,28.72
2022-10-19T04:12:20.290Z,28.62
2022-10-19T04:14:58.138Z,28.76
2022-10-19T04:17:26.813Z,28.76
2022-10-19T04:19:55.224Z,29.15
2022-10-19T04:22:23.359Z,28.99
2022-10-19T04:24:51.713Z,29.16
2022-10-19T04:27:21.246Z,29.06
2022-10-19T04:29:49.643Z,28.96
2022-10-19T04:32:17.800Z,29.42
2022-10-19T04:34:46.207Z,29.18
2022-10-19T04:37:14.379Z,29.33
2022-10-19T04:39:43.891Z,29.37
2022-10-19T04:42:12.125Z,29.25
2022-10-19T04:44:41.814Z,28.83
2022-10-19T04:47:09.945Z,29.21
2022-10-19T04:49:38.401Z,29.46
2022-10-19T04:52:06.871Z,29.41
2022-10-19T04:54:35.321Z,29.48
2022-10-19T04:57:03.396Z,29.86
2022-10-19T04:59:31.634Z,29.80
2022-10-19T05:02:01.217Z,29.32
2022-10-19T05:04:29.524Z,29.57
2022-10-19T05:06:57.802Z,30.09
2022-10-19T05:09:26.493Z,30.03
2022-10-19T05:11:54.657Z,30.12
2022-10-19T05:14:23.229Z,30.22
2022-10-19T05:16:51.469Z,30.00
2022-10-19T05:19:21.382Z,30.03
2022-10-19T05:21:50.202Z,30.40
2022-10-19T05:24:19.027Z,29.95
2022-10-19T05:26:47.333Z,29.48
2022-10-19T05:29:15.755Z,29.55
2022-10-19T05:31:44.019Z,29.70
2022-10-19T05:34:15.153Z,29.84
2022-10-19T05:36:45.227Z,29.19
2022-10-19T05:39:15.746Z,29.01
2022-10-19T05:41:44.621Z,29.18
2022-10-19T05:44:15.767Z,28.79
2022-10-19T05:46:45.557Z,28.65
2022-10-19T05:49:15.581Z,28.51
2022-10-19T05:51:45.350Z,27.32
2022-10-19T05:54:15.087Z,27.05
2022-10-19T05:56:43.755Z,26.87
2022-10-19T05:59:15.816Z,26.52
2022-10-19T06:01:44.035Z,26.98
2022-10-19T06:04:14.294Z,26.74
2022-10-19T06:06:43.562Z,26.22
2022-10-19T06:09:13.526Z,26.40
2022-10-19T06:11:42.831Z,26.79
2022-10-19T06:14:14.527Z,26.16
2022-10-19T06:16:42.961Z,26.73
2022-10-19T06:19:11.284Z,26.98
2022-10-19T06:21:41.956Z,27.06
2022-10-19T06:24:14.737Z,26.98
2022-10-19T06:26:42.886Z,26.88
2022-10-19T06:29:11.217Z,26.83
2022-10-19T06:31:39.588Z,26.68
2022-10-19T06:34:08.170Z,26.95
2022-10-19T06:36:36.872Z,27.12
2022-10-19T06:39:05.744Z,27.36
2022-10-19T06:41:35.440Z,26.94
2022-10-19T06:44:03.962Z,27.00
2022-10-19T06:46:32.653Z,26.81
2022-10-19T06:49:02.669Z,26.90
2022-10-19T06:51:34.049Z,26.53
2022-10-19T06:54:02.490Z,27.13
2022-10-19T06:56:30.645Z,26.90
2022-10-19T06:59:00.456Z,26.29
2022-10-19T07:01:28.827Z,26.44
2022-10-19T07:03:57.320Z,26.87
2022-10-19T07:06:27.648Z,26.79
2022-10-19T07:08:55.980Z,26.65
2022-10-19T07:11:24.157Z,26.10
2022-10-19T07:13:53.985Z,26.17
2022-10-19T07:16:23.552Z,25.92
2022-10-19T07:18:53.253Z,26.34
2022-10-19T07:21:22.459Z,26.02
2022-10-19T07:23:51.326Z,26.60
2022-10-19T07:26:23.567Z,26.59
2022-10-19T07:28:52.333Z,26.21
2022-10-19T07:31:24.531Z,25.49
2022-10-19T07:33:54.592Z,25.58
2022-10-19T07:36:23.426Z,23.41
2022-10-19T07:38:52.040Z,21.75
2022-10-19T07:41:22.362Z,20.88
2022-10-19T07:43:51.275Z,21.15
2022-10-19T07:46:20.747Z,21.67
2022-10-19T07:48:50.481Z,21.86
2022-10-19T07:51:19.516Z,20.47
2022-10-19T07:53:48.265Z,19.31
2022-10-19T07:56:18.140Z,18.36
2022-10-19T07:58:47.071Z,19.61
2022-10-19T08:01:16.864Z,20.54
2022-10-19T08:06:36.651Z,21.88
2022-10-19T08:09:05.460Z,21.96
2022-10-19T08:11:35.668Z,22.23
2022-10-19T08:14:04.689Z,23.33
2022-10-19T08:16:36.693Z,23.23
2022-10-19T08:19:07.191Z,23.12
2022-10-19T08:21:37.700Z,22.90
2022-10-19T08:24:06.846Z,23.11
2022-10-19T08:26:36.701Z,22.83
2022-10-19T08:29:06.598Z,22.16
2022-10-19T08:31:34.989Z,21.38
2022-10-19T08:34:03.395Z,19.60
2022-10-19T08:36:32.781Z,18.33
2022-10-19T08:39:03.205Z,17.17
2022-10-19T08:41:34.794Z,17.27
2022-10-19T08:44:20.359Z,17.37
2022-10-19T08:46:53.752Z,18.01
2022-10-19T08:49:25.488Z,18.79
2022-10-19T08:51:56.066Z,18.03
2022-10-19T08:54:28.641Z,19.76
2022-10-19T08:57:06.067Z,20.35
2022-10-19T08:59:40.441Z,20.51
2022-10-19T09:02:15.511Z,20.79
2022-10-19T09:04:47.017Z,21.46
2022-10-19T09:07:26.082Z,20.98
2022-10-19T09:09:58.808Z,21.25
2022-10-19T09:12:34.985Z,21.64
2022-10-19T09:15:06.006Z,22.00
2022-10-19T09:17:34.308Z,21.51
2022-10-19T09:20:15.729Z,20.40
2022-10-19T09:22:44.896Z,20.37
2022-10-19T09:25:19.953Z,19.12
2022-10-19T09:27:50.242Z,18.58
2022-10-19T09:30:21.199Z,17.85
2022-10-19T09:32:50.469Z,16.97
2022-10-19T09:35:24.247Z,15.79
2022-10-19T09:37:52.966Z,16.05
2022-10-19T09:40:25.951Z,16.13
2022-10-19T09:42:58.527Z,16.95
2022-10-19T09:45:35.314Z,16.87
2022-10-19T09:48:12.194Z,17.58
2022-10-19T09:50:44.985Z,17.22
2022-10-19T09:53:19.183Z,17.52
2022-10-19T09:55:58.511Z,17.79
2022-10-19T09:58:32.075Z,18.46
2022-10-19T10:01:03.110Z,18.90
2022-10-19T10:03:33.275Z,19.39
2022-10-19T10:06:04.586Z,19.15
2022-10-19T10:08:34.932Z,19.40
2022-10-19T10:11:10.251Z,18.90
2022-10-19T10:13:40.183Z,19.69
2022-10-19T10:16:10.458Z,19.46
2022-10-19T10:18:45.676Z,19.35
2022-10-19T10:21:17.072Z,19.66
2022-10-19T10:24:00.548Z,19.58
2022-10-19T10:26:30.398Z,19.68
2022-10-19T10:29:01.354Z,20.21
2022-10-19T10:31:31.180Z,20.54
2022-10-19T10:34:10.922Z,20.53
2022-10-19T10:36:52.579Z,20.92
2022-10-19T10:39:20.789Z,21.11
2022-10-19T10:41:50.540Z,20.71
2022-10-19T10:44:20.962Z,20.82
2022-10-19T10:46:53.278Z,20.41
2022-10-19T10:49:26.193Z,20.45
2022-10-19T10:51:56.547Z,20.34
2022-10-19T10:54:26.841Z,20.45
2022-10-19T10:57:13.160Z,19.63
2022-10-19T10:59:48.342Z,19.54
2022-10-19T11:02:29.625Z,19.28
2022-10-19T11:05:01.209Z,19.72
2022-10-19T11:07:30.145Z,20.38
2022-10-19T11:10:00.436Z,19.96
2022-10-19T11:12:35.765Z,19.32
2022-10-19T11:15:12.443Z,19.62
2022-10-19T11:17:54.866Z,20.06
2022-10-19T11:20:24.282Z,20.31
2022-10-19T11:22:59.486Z,19.64
2022-10-19T11:25:37.515Z,19.82
2022-10-19T11:28:16.669Z,19.71
2022-10-19T11:30:55.597Z,19.44
2022-10-19T11:33:36.205Z,19.10
2022-10-19T11:36:12.909Z,18.85
2022-10-19T11:38:51.804Z,18.20
2022-10-19T11:41:28.508Z,18.31
2022-10-19T11:44:10.574Z,18.12
2022-10-19T11:46:42.831Z,18.22
2022-10-19T11:49:22.820Z,18.28
2022-10-19T11:51:57.544Z,18.28
2022-10-19T11:54:35.510Z,18.00
2022-10-19T11:57:11.354Z,18.26
2022-10-19T11:59:52.567Z,17.89
2022-10-19T12:02:39.267Z,18.14
2022-10-19T12:05:11.468Z,17.96
2022-10-19T12:07:56.663Z,18.07
2022-10-19T12:10:30.454Z,17.83
2022-10-19T12:13:02.357Z,18.39
2022-10-19T12:15:35.320Z,17.98
2022-10-19T12:18:10.198Z,17.70
2022-10-19T12:20:41.305Z,17.58
2022-10-19T12:23:23.126Z,17.51
2022-10-19T12:25:52.406Z,17.85
2022-10-19T12:28:23.729Z,17.50
2022-10-19T12:30:53.271Z,16.68
2022-10-19T12:33:24.934Z,17.59
2022-10-19T12:36:02.190Z,17.70
2022-10-19T12:38:42.281Z,18.25
2022-10-19T12:41:21.462Z,18.64
2022-10-19T12:44:01.899Z,18.77
2022-10-19T12:46:37.324Z,18.96
2022-10-19T12:49:38.564Z,18.71
2022-10-19T12:52:08.330Z,19.61
2022-10-19T12:54:39.482Z,19.21
2022-10-19T12:57:22.850Z,18.23
2022-10-19T13:00:00.637Z,18.96
2022-10-19T13:05:01.501Z,20.13
2022-10-19T13:07:37.286Z,19.58
2022-10-19T13:10:07.389Z,19.48
2022-10-19T13:12:44.827Z,18.96
2022-10-19T13:15:49.521Z,18.81
2022-10-19T13:19:02.729Z,18.83
2022-10-19T13:21:54.087Z,18.63
2022-10-19T13:24:34.701Z,18.42
2022-10-19T13:27:27.363Z,18.57
2022-10-19T13:29:55.781Z,19.59
2022-10-19T13:32:48.035Z,18.30
2022-10-19T13:35:31.628Z,18.63
2022-10-19T13:38:24.320Z,19.10
2022-10-19T13:41:08.041Z,19.04
2022-10-19T13:43:40.327Z,19.32
2022-10-19T13:46:14.933Z,18.94
2022-10-19T13:49:04.858Z,19.20
2022-10-19T13:51:38.779Z,19.58
2022-10-19T13:54:17.782Z,19.76
2022-10-19T13:56:57.350Z,19.90
2022-10-19T13:59:57.562Z,19.41
2022-10-19T14:02:55.176Z,19.54
2022-10-19T14:08:22.733Z,20.46
2022-10-19T14:11:01.098Z,20.82
2022-10-19T14:13:30.545Z,21.38
2022-10-19T14:16:00.658Z,21.13
2022-10-19T14:18:31.271Z,21.10
2022-10-19T14:21:00.833Z,21.26
2022-10-19T14:23:31.848Z,21.17
2022-10-19T14:26:01.383Z,21.63
2022-10-19T14:28:29.897Z,21.48
2022-10-19T14:30:59.983Z,21.48
2022-10-19T14:33:28.763Z,21.82
2022-10-19T14:35:57.423Z,21.72
2022-10-19T14:38:32.862Z,21.23
2022-10-19T14:41:01.169Z,21.91
2022-10-19T14:43:30.936Z,21.94
2022-10-19T14:46:14.604Z,22.87
2022-10-19T14:48:45.564Z,23.11
2022-10-19T14:51:28.057Z,22.00
2022-10-19T14:54:00.637Z,22.11
2022-10-19T14:56:34.854Z,21.60
2022-10-19T14:59:06.205Z,20.95
2022-10-19T15:01:35.026Z,21.14
2022-10-19T15:04:03.788Z,21.17
2022-10-19T15:06:35.727Z,20.38
2022-10-19T15:09:12.101Z,19.92
2022-10-19T15:11:49.858Z,20.81
2022-10-19T15:14:22.037Z,20.82
2022-10-19T15:16:53.362Z,20.61
2022-10-19T15:19:27.786Z,20.82
2022-10-19T15:22:13.180Z,20.99
2022-10-19T15:24:57.160Z,20.92
2022-10-19T15:27:31.259Z,21.93
2022-10-19T15:30:05.660Z,22.34
2022-10-19T15:32:36.606Z,22.77
2022-10-19T15:35:12.996Z,22.36
2022-10-19T15:37:43.656Z,22.78
2022-10-19T15:40:18.431Z,22.64
2022-10-19T15:42:48.800Z,23.32
2022-10-19T15:45:35.598Z,22.54
2022-10-19T15:48:20.299Z,23.01
2022-10-19T15:50:49.622Z,23.91
2022-10-19T15:53:18.012Z,23.64
2022-10-19T15:55:48.057Z,23.57
2022-10-19T15:58:16.483Z,24.38
2022-10-19T16:00:45.468Z,24.38
2022-10-19T16:03:14.079Z,24.53
2022-10-19T16:05:42.380Z,24.52
2022-10-19T16:08:12.477Z,24.69
2022-10-19T16:10:40.979Z,24.48
2022-10-19T16:13:10.445Z,24.21
2022-10-19T16:15:38.766Z,24.57
2022-10-19T16:18:06.872Z,24.04
2022-10-19T16:20:35.259Z,24.04
2022-10-19T16:23:03.656Z,24.00
2022-10-19T16:25:31.995Z,24.26
2022-10-19T16:28:03.148Z,24.01
2022-10-19T16:30:32.859Z,23.73
2022-10-19T16:33:01.098Z,23.97
2022-10-19T16:35:29.330Z,23.92
2022-10-19T16:37:59.170Z,24.03
2022-10-19T16:40:27.517Z,23.68
2022-10-19T16:42:58.853Z,23.84
2022-10-19T16:45:27.299Z,23.79
2022-10-19T16:47:56.856Z,23.72
2022-10-19T16:50:25.318Z,23.58
2022-10-19T16:53:04.935Z,22.84
2022-10-19T16:55:33.901Z,23.52
2022-10-19T16:58:01.984Z,23.94
2022-10-19T17:00:30.485Z,23.58
2022-10-19T17:03:00.113Z,23.56
2022-10-19T17:05:28.493Z,23.95
2022-10-19T17:07:56.627Z,23.79
2022-10-19T17:10:25.176Z,23.86
2022-10-19T17:12:53.420Z,24.01
2022-10-19T17:15:42.065Z,23.76
2022-10-19T17:18:11.457Z,23.65
2022-10-19T17:20:39.957Z,23.59
2022-10-19T17:23:08.072Z,23.65
2022-10-19T17:25:36.454Z,24.01
2022-10-19T17:28:04.645Z,23.96
2022-10-19T17:30:32.978Z,24.15
2022-10-19T17:33:01.027Z,24.60
2022-10-19T17:35:30.769Z,24.32
2022-10-19T17:37:59.064Z,24.56
2022-10-19T17:40:27.540Z,24.36
2022-10-19T17:42:55.686Z,24.57
2022-10-19T17:45:24.103Z,24.52
2022-10-19T17:47:52.191Z,24.78
2022-10-19T17:50:20.575Z,24.60
2022-10-19T17:52:50.076Z,24.14
2022-10-19T17:55:18.652Z,24.66
2022-10-19T17:57:46.921Z,24.77
2022-10-19T18:00:16.239Z,24.57
2022-10-19T18:02:45.910Z,24.64
2022-10-19T18:05:14.417Z,24.72
2022-10-19T18:07:44.782Z,24.28
2022-10-19T18:10:15.520Z,24.60
2022-10-19T18:12:43.592Z,24.77
2022-10-19T18:15:11.920Z,24.67
2022-10-19T18:17:40.325Z,24.78
2022-10-19T18:20:09.954Z,24.66
2022-10-19T18:22:38.413Z,24.86
2022-10-19T18:25:07.502Z,24.92
2022-10-19T18:27:37.590Z,24.83
2022-10-19T18:30:06.814Z,24.92
2022-10-19T18:32:36.205Z,25.02
2022-10-19T18:35:05.190Z,25.09
2022-10-19T18:37:33.302Z,25.17
2022-10-19T18:40:01.721Z,25.38
2022-10-19T18:42:30.633Z,25.21
2022-10-19T18:45:00.670Z,25.29
2022-10-19T18:47:28.793Z,25.53
2022-10-19T18:49:57.417Z,25.35
2022-10-19T18:52:25.587Z,25.40
2022-10-19T18:54:53.961Z,25.46
2022-10-19T18:57:22.194Z,25.46
2022-10-19T18:59:50.698Z,25.46
2022-10-19T19:02:22.700Z,25.36
2022-10-19T19:04:56.634Z,25.20
2022-10-19T19:07:24.870Z,25.36
2022-10-19T19:09:53.211Z,25.21
2022-10-19T19:12:22.615Z,25.01
2022-10-19T19:14:50.982Z,25.15
2022-10-19T19:17:20.452Z,24.91
2022-10-19T19:19:48.858Z,25.38
2022-10-19T19:22:18.044Z,25.36
2022-10-19T19:24:46.756Z,25.39
2022-10-19T19:27:15.000Z,25.28
2022-10-19T19:29:44.008Z,25.33
2022-10-19T19:32:12.119Z,25.58
2022-10-19T19:34:41.808Z,25.64
2022-10-19T19:37:11.237Z,26.12
2022-10-19T19:39:39.973Z,26.29
2022-10-19T19:42:08.778Z,26.39
2022-10-19T19:44:37.110Z,26.27
2022-10-19T19:47:05.907Z,26.56
2022-10-19T19:49:34.378Z,26.45
2022-10-19T19:52:03.950Z,26.31
2022-10-19T19:54:32.539Z,26.68
2022-10-19T19:57:00.674Z,26.66
2022-10-19T19:59:30.414Z,26.86
2022-10-19T20:01:58.579Z,26.81
2022-10-19T20:04:27.232Z,26.90
2022-10-19T20:06:55.321Z,26.84
2022-10-19T20:09:25.107Z,26.57
2022-10-19T20:11:53.275Z,26.75
2022-10-19T20:14:21.666Z,26.78
2022-10-19T20:16:49.783Z,26.72
2022-10-19T20:19:18.254Z,26.99
2022-10-19T20:21:46.279Z,26.96
2022-10-19T20:24:14.666Z,26.79
2022-10-19T20:26:44.120Z,26.72
2022-10-19T20:29:12.551Z,27.02
2022-10-19T20:31:41.390Z,27.07
2022-10-19T20:34:14.853Z,27.01
2022-10-19T20:36:43.183Z,27.23
2022-10-19T20:39:11.874Z,27.19
2022-10-19T20:41:39.947Z,27.62
2022-10-19T20:44:09.685Z,27.44
2022-10-19T20:46:37.862Z,27.50
2022-10-19T20:49:07.430Z,27.63
2022-10-19T20:51:37.165Z,27.56
2022-10-19T20:54:07.535Z,27.61
2022-10-19T20:56:37.054Z,27.55
2022-10-19T20:59:07.352Z,27.46
2022-10-19T21:01:38.615Z,27.19
2022-10-19T21:04:07.693Z,26.11
2022-10-19T21:06:39.582Z,26.99
2022-10-19T21:09:08.720Z,27.43
2022-10-19T21:11:38.534Z,27.56
2022-10-19T21:14:09.762Z,27.35
2022-10-19T21:16:39.669Z,27.25
2022-10-19T21:19:09.604Z,27.55
2022-10-19T21:21:41.625Z,27.32
2022-10-19T21:24:12.809Z,27.25
2022-10-19T21:26:41.122Z,27.56
2022-10-19T21:29:10.700Z,27.19
2022-10-19T21:31:47.830Z,27.17
2022-10-19T21:34:21.430Z,27.13
2022-10-19T21:36:49.747Z,27.56
2022-10-19T21:39:18.757Z,27.11
2022-10-19T21:41:47.377Z,27.31
2022-10-19T21:44:16.474Z,27.25
2022-10-19T21:46:48.227Z,27.00
2022-10-19T21:49:16.589Z,27.25
2022-10-19T21:51:45.935Z,27.26
2022-10-19T21:54:15.637Z,27.35
2022-10-19T21:56:43.893Z,27.55
2022-10-19T21:59:13.142Z,27.57
2022-10-19T22:01:41.909Z,27.43
2022-10-19T22:04:14.162Z,27.16
2022-10-19T22:06:42.710Z,27.73
2022-10-19T22:09:14.645Z,27.35
2022-10-19T22:11:42.945Z,27.87
2022-10-19T22:14:13.308Z,27.41
2022-10-19T22:16:41.961Z,27.91
2022-10-19T22:19:12.004Z,27.37
2022-10-19T22:21:40.355Z,27.96
2022-10-19T22:24:11.635Z,27.86
2022-10-19T22:26:42.024Z,27.97
2022-10-19T22:29:10.563Z,28.04
2022-10-19T22:31:39.464Z,27.96
2022-10-19T22:34:09.589Z,27.64
2022-10-19T22:36:39.310Z,27.85
2022-10-19T22:39:08.404Z,27.67
2022-10-19T22:42:31.789Z,26.92
2022-10-19T22:45:00.485Z,28.16
2022-10-19T22:47:28.662Z,28.19
2022-10-19T22:49:57.189Z,27.91
2022-10-19T22:52:26.843Z,27.73
2022-10-19T22:54:55.419Z,28.01
2022-10-19T22:57:23.804Z,28.26
2022-10-19T22:59:52.179Z,28.20
2022-10-19T23:02:20.391Z,27.97
2022-10-19T23:04:48.862Z,27.98
2022-10-19T23:07:17.075Z,28.16
2022-10-19T23:09:46.888Z,28.33
2022-10-19T23:12:15.027Z,28.21
2022-10-19T23:14:43.626Z,28.24
2022-10-19T23:17:11.911Z,28.50
2022-10-19T23:19:40.346Z,28.21
2022-10-19T23:22:08.424Z,28.31
2022-10-19T23:24:36.807Z,28.18
2022-10-19T23:27:06.386Z,28.35
2022-10-19T23:29:34.919Z,28.46
2022-10-19T23:32:03.061Z,28.54
2022-10-19T23:34:31.412Z,28.59
2022-10-19T23:36:59.649Z,28.89
2022-10-19T23:39:28.029Z,28.79
2022-10-19T23:41:56.133Z,28.76
2022-10-19T23:44:25.899Z,28.73
2022-10-19T23:46:54.274Z,28.69
2022-10-19T23:49:22.529Z,28.66
2022-10-19T23:51:50.671Z,29.12
2022-10-19T23:54:18.970Z,29.12
2022-10-19T23:56:47.019Z,28.84
2022-10-19T23:59:15.536Z,28.79
